sensor_id;sensor_type;location;lat;lon;timestamp;pressure;altitude;pressure_sealevel;temperature;humidity
49451;BME280;35336;48.400;10.886;2023-06-10T00:00:08;95871.38;;;17.23;66.43
49451;BME280;35336;48.400;10.886;2023-06-10T00:00:24;95868.94;;;17.21;66.31
49451;BME280;35336;48.400;10.886;2023-06-10T00:00:39;95870.88;;;17.26;66.15
49451;BME280;35336;48.400;10.886;2023-06-10T00:00:57;95874.63;;;17.25;66.18
49451;BME280;35336;48.400;10.886;2023-06-10T00:01:15;95855.72;;;17.20;66.25
49451;BME280;35336;48.400;10.886;2023-06-10T00:01:30;95862.53;;;17.27;66.16
49451;BME280;35336;48.400;10.886;2023-06-10T00:01:45;95863.06;;;17.24;66.31
49451;BME280;35336;48.400;10.886;2023-06-10T00:02:01;95867.06;;;17.22;66.24
49451;BME280;35336;48.400;10.886;2023-06-10T00:02:16;95855.41;;;17.16;66.67
49451;BME280;35336;48.400;10.886;2023-06-10T00:02:33;95861.69;;;17.22;66.43
49451;BME280;35336;48.400;10.886;2023-06-10T00:02:55;95865.50;;;17.26;66.16
49451;BME280;35336;48.400;10.886;2023-06-10T00:03:14;95863.84;;;17.25;65.99
49451;BME280;35336;48.400;10.886;2023-06-10T00:03:29;95865.50;;;17.26;66.11
49451;BME280;35336;48.400;10.886;2023-06-10T00:03:44;95870.41;;;17.29;66.19
49451;BME280;35336;48.400;10.886;2023-06-10T00:03:59;95855.22;;;17.23;66.13
49451;BME280;35336;48.400;10.886;2023-06-10T00:04:15;95860.09;;;17.26;65.89
49451;BME280;35336;48.400;10.886;2023-06-10T00:04:31;95870.88;;;17.26;66.03
49451;BME280;35336;48.400;10.886;2023-06-10T00:04:48;95852.47;;;17.18;66.11
49451;BME280;35336;48.400;10.886;2023-06-10T00:05:04;95848.13;;;17.17;66.29
49451;BME280;35336;48.400;10.886;2023-06-10T00:05:19;95868.19;;;17.26;66.35
49451;BME280;35336;48.400;10.886;2023-06-10T00:05:36;95859.00;;;17.22;66.26
49451;BME280;35336;48.400;10.886;2023-06-10T00:05:52;95867.63;;;17.24;66.30
49451;BME280;35336;48.400;10.886;2023-06-10T00:06:10;95850.81;;;17.17;66.11
49451;BME280;35336;48.400;10.886;2023-06-10T00:06:28;95867.88;;;17.22;66.23
49451;BME280;35336;48.400;10.886;2023-06-10T00:06:46;95866.25;;;17.21;66.42
49451;BME280;35336;48.400;10.886;2023-06-10T00:07:04;95866.50;;;17.20;66.56
49451;BME280;35336;48.400;10.886;2023-06-10T00:07:22;95864.88;;;17.19;66.65
49451;BME280;35336;48.400;10.886;2023-06-10T00:07:37;95865.66;;;17.19;66.72
49451;BME280;35336;48.400;10.886;2023-06-10T00:07:52;95852.94;;;17.14;66.77
49451;BME280;35336;48.400;10.886;2023-06-10T00:08:08;95861.59;;;17.17;66.56
49451;BME280;35336;48.400;10.886;2023-06-10T00:08:23;95855.09;;;17.12;66.72
49451;BME280;35336;48.400;10.886;2023-06-10T00:08:38;95861.59;;;17.17;66.80
49451;BME280;35336;48.400;10.886;2023-06-10T00:08:54;95860.53;;;17.18;66.46
49451;BME280;35336;48.400;10.886;2023-06-10T00:09:09;95867.81;;;17.17;66.59
49451;BME280;35336;48.400;10.886;2023-06-10T00:09:30;95866.75;;;17.18;66.53
49451;BME280;35336;48.400;10.886;2023-06-10T00:09:45;95855.41;;;17.16;66.75
49451;BME280;35336;48.400;10.886;2023-06-10T00:10:00;95849.72;;;17.12;66.72
49451;BME280;35336;48.400;10.886;2023-06-10T00:10:18;95863.50;;;17.16;66.55
49451;BME280;35336;48.400;10.886;2023-06-10T00:10:37;95874.00;;;17.18;66.63
49451;BME280;35336;48.400;10.886;2023-06-10T00:10:53;95861.59;;;17.17;66.82
49451;BME280;35336;48.400;10.886;2023-06-10T00:11:10;95857.28;;;17.15;66.59
49451;BME280;35336;48.400;10.886;2023-06-10T00:11:26;95847.00;;;17.12;66.51
49451;BME280;35336;48.400;10.886;2023-06-10T00:11:41;95868.13;;;17.21;66.55
49451;BME280;35336;48.400;10.886;2023-06-10T00:11:57;95865.66;;;17.19;66.60
49451;BME280;35336;48.400;10.886;2023-06-10T00:12:12;95854.56;;;17.15;66.76
49451;BME280;35336;48.400;10.886;2023-06-10T00:12:27;95848.56;;;17.08;66.71
49451;BME280;35336;48.400;10.886;2023-06-10T00:12:52;95845.88;;;17.08;66.74
49451;BME280;35336;48.400;10.886;2023-06-10T00:13:09;95866.50;;;17.20;66.52
49451;BME280;35336;48.400;10.886;2023-06-10T00:13:27;95844.00;;;17.09;66.64
49451;BME280;35336;48.400;10.886;2023-06-10T00:13:42;95857.03;;;17.17;66.62
49451;BME280;35336;48.400;10.886;2023-06-10T00:14:00;95866.50;;;17.20;66.65
49451;BME280;35336;48.400;10.886;2023-06-10T00:14:16;95864.38;;;17.22;66.26
49451;BME280;35336;48.400;10.886;2023-06-10T00:14:31;95855.72;;;17.20;66.39
49451;BME280;35336;48.400;10.886;2023-06-10T00:14:46;95862.81;;;17.26;66.30
49451;BME280;35336;48.400;10.886;2023-06-10T00:15:05;95868.19;;;17.26;66.45
49451;BME280;35336;48.400;10.886;2023-06-10T00:15:20;95866.88;;;17.28;66.26
49451;BME280;35336;48.400;10.886;2023-06-10T00:15:38;95871.78;;;17.32;66.14
49451;BME280;35336;48.400;10.886;2023-06-10T00:15:53;95861.75;;;17.27;66.42
49451;BME280;35336;48.400;10.886;2023-06-10T00:16:11;95854.72;;;17.26;66.25
49451;BME280;35336;48.400;10.886;2023-06-10T00:16:26;95868.75;;;17.28;66.17
49451;BME280;35336;48.400;10.886;2023-06-10T00:16:41;95859.31;;;17.25;66.44
49451;BME280;35336;48.400;10.886;2023-06-10T00:16:57;95861.75;;;17.27;66.55
49451;BME280;35336;48.400;10.886;2023-06-10T00:17:14;95864.69;;;17.25;66.15
49451;BME280;35336;48.400;10.886;2023-06-10T00:17:30;95868.50;;;17.29;66.17
49451;BME280;35336;48.400;10.886;2023-06-10T00:17:45;95856.63;;;17.25;66.21
49451;BME280;35336;48.400;10.886;2023-06-10T00:18:00;95866.59;;;17.30;66.24
49451;BME280;35336;48.400;10.886;2023-06-10T00:18:16;95863.13;;;17.29;66.44
49451;BME280;35336;48.400;10.886;2023-06-10T00:18:31;95864.19;;;17.28;66.21
49451;BME280;35336;48.400;10.886;2023-06-10T00:18:46;95870.94;;;17.31;66.30
49451;BME280;35336;48.400;10.886;2023-06-10T00:19:05;95869.31;;;17.30;66.31
49451;BME280;35336;48.400;10.886;2023-06-10T00:19:21;95848.22;;;17.22;66.11
49451;BME280;35336;48.400;10.886;2023-06-10T00:19:37;95853.34;;;17.23;66.11
49451;BME280;35336;48.400;10.886;2023-06-10T00:19:52;95856.03;;;17.23;66.12
49451;BME280;35336;48.400;10.886;2023-06-10T00:20:09;95862.06;;;17.30;66.01
49451;BME280;35336;48.400;10.886;2023-06-10T00:20:24;95866.06;;;17.28;66.23
49451;BME280;35336;48.400;10.886;2023-06-10T00:20:42;95856.28;;;17.22;66.27
49451;BME280;35336;48.400;10.886;2023-06-10T00:20:57;95871.47;;;17.28;66.48
49451;BME280;35336;48.400;10.886;2023-06-10T00:21:13;95867.13;;;17.27;66.47
49451;BME280;35336;48.400;10.886;2023-06-10T00:21:32;95866.06;;;17.28;66.45
49451;BME280;35336;48.400;10.886;2023-06-10T00:21:50;95866.59;;;17.30;66.21
49451;BME280;35336;48.400;10.886;2023-06-10T00:22:05;95865.81;;;17.29;66.20
49451;BME280;35336;48.400;10.886;2023-06-10T00:22:23;95863.91;;;17.30;66.14
49451;BME280;35336;48.400;10.886;2023-06-10T00:22:40;95865.06;;;17.34;66.09
49451;BME280;35336;48.400;10.886;2023-06-10T00:22:58;95866.13;;;17.33;66.04
49451;BME280;35336;48.400;10.886;2023-06-10T00:23:16;95867.69;;;17.29;66.02
49451;BME280;35336;48.400;10.886;2023-06-10T00:23:31;95869.13;;;17.37;65.71
49451;BME280;35336;48.400;10.886;2023-06-10T00:23:46;95869.13;;;17.37;65.79
49451;BME280;35336;48.400;10.886;2023-06-10T00:24:03;95866.44;;;17.37;66.16
49451;BME280;35336;48.400;10.886;2023-06-10T00:24:21;95867.22;;;17.37;65.81
49451;BME280;35336;48.400;10.886;2023-06-10T00:24:36;95865.84;;;17.35;65.63
49451;BME280;35336;48.400;10.886;2023-06-10T00:24:51;95856.84;;;17.24;66.10
49451;BME280;35336;48.400;10.886;2023-06-10T00:25:07;95863.69;;;17.32;66.08
49451;BME280;35336;48.400;10.886;2023-06-10T00:25:22;95855.72;;;17.20;66.14
49451;BME280;35336;48.400;10.886;2023-06-10T00:25:40;95865.22;;;17.27;66.28
49451;BME280;35336;48.400;10.886;2023-06-10T00:25:55;95876.00;;;17.27;66.39
49451;BME280;35336;48.400;10.886;2023-06-10T00:26:11;95864.38;;;17.22;66.59
49451;BME280;35336;48.400;10.886;2023-06-10T00:26:28;95869.25;;;17.25;66.44
49451;BME280;35336;48.400;10.886;2023-06-10T00:26:44;95867.06;;;17.22;66.41
49451;BME280;35336;48.400;10.886;2023-06-10T00:26:59;95875.22;;;17.27;66.62
49451;BME280;35336;48.400;10.886;2023-06-10T00:27:14;95870.94;;;17.31;66.44
49451;BME280;35336;48.400;10.886;2023-06-10T00:27:30;95868.25;;;17.31;66.50
49451;BME280;35336;48.400;10.886;2023-06-10T00:27:45;95859.63;;;17.29;66.22
49451;BME280;35336;48.400;10.886;2023-06-10T00:28:00;95872.31;;;17.34;66.31
49451;BME280;35336;48.400;10.886;2023-06-10T00:28:16;95872.56;;;17.32;66.21
49451;BME280;35336;48.400;10.886;2023-06-10T00:28:33;95869.88;;;17.32;66.18
49451;BME280;35336;48.400;10.886;2023-06-10T00:28:49;95871.50;;;17.33;66.23
49451;BME280;35336;48.400;10.886;2023-06-10T00:29:04;95860.06;;;17.21;66.34
49451;BME280;35336;48.400;10.886;2023-06-10T00:29:20;95875.22;;;17.27;66.60
49451;BME280;35336;48.400;10.886;2023-06-10T00:29:39;95865.97;;;17.23;66.72
49451;BME280;35336;48.400;10.886;2023-06-10T00:29:59;95862.75;;;17.21;66.70
49451;BME280;35336;48.400;10.886;2023-06-10T00:30:15;95868.69;;;17.23;66.31
49451;BME280;35336;48.400;10.886;2023-06-10T00:30:30;95873.00;;;17.24;66.26
49451;BME280;35336;48.400;10.886;2023-06-10T00:30:45;95869.00;;;17.26;66.62
49451;BME280;35336;48.400;10.886;2023-06-10T00:31:01;95875.22;;;17.27;66.69
49451;BME280;35336;48.400;10.886;2023-06-10T00:31:16;95865.97;;;17.23;66.49
49451;BME280;35336;48.400;10.886;2023-06-10T00:31:34;95857.84;;;17.18;66.61
49451;BME280;35336;48.400;10.886;2023-06-10T00:31:52;95868.13;;;17.21;66.86
49451;BME280;35336;48.400;10.886;2023-06-10T00:32:07;95863.22;;;17.18;66.54
49451;BME280;35336;48.400;10.886;2023-06-10T00:32:23;95873.00;;;17.24;66.44
49451;BME280;35336;48.400;10.886;2023-06-10T00:32:42;95859.97;;;17.15;67.00
49451;BME280;35336;48.400;10.886;2023-06-10T00:32:58;95873.53;;;17.21;66.75
49451;BME280;35336;48.400;10.886;2023-06-10T00:33:15;95867.50;;;17.13;66.63
49451;BME280;35336;48.400;10.886;2023-06-10T00:33:31;95875.06;;;17.17;67.01
49451;BME280;35336;48.400;10.886;2023-06-10T00:33:46;95874.84;;;17.18;67.05
49451;BME280;35336;48.400;10.886;2023-06-10T00:34:06;95873.53;;;17.21;66.78
49451;BME280;35336;48.400;10.886;2023-06-10T00:34:22;95873.75;;;17.19;66.88
49451;BME280;35336;48.400;10.886;2023-06-10T00:34:37;95865.03;;;17.12;67.10
49451;BME280;35336;48.400;10.886;2023-06-10T00:34:53;95875.31;;;17.15;66.99
49451;BME280;35336;48.400;10.886;2023-06-10T00:35:10;95869.09;;;17.14;67.08
49451;BME280;35336;48.400;10.886;2023-06-10T00:35:28;95874.00;;;17.18;67.13
49451;BME280;35336;48.400;10.886;2023-06-10T00:35:43;95866.75;;;17.18;66.85
49451;BME280;35336;48.400;10.886;2023-06-10T00:35:58;95863.19;;;17.12;67.17
49451;BME280;35336;48.400;10.886;2023-06-10T00:36:14;95852.50;;;17.01;67.29
49451;BME280;35336;48.400;10.886;2023-06-10T00:36:32;95869.09;;;17.14;67.04
49451;BME280;35336;48.400;10.886;2023-06-10T00:36:47;95856.66;;;17.08;67.35
49451;BME280;35336;48.400;10.886;2023-06-10T00:37:02;95874.44;;;17.09;67.23
49451;BME280;35336;48.400;10.886;2023-06-10T00:37:18;95865.56;;;17.09;67.47
49451;BME280;35336;48.400;10.886;2023-06-10T00:37:33;95864.19;;;17.06;67.36
49451;BME280;35336;48.400;10.886;2023-06-10T00:37:48;95865.47;;;17.04;67.59
49451;BME280;35336;48.400;10.886;2023-06-10T00:38:04;95866.88;;;17.06;67.49
49451;BME280;35336;48.400;10.886;2023-06-10T00:38:20;95865.72;;;17.02;67.46
49451;BME280;35336;48.400;10.886;2023-06-10T00:38:35;95871.63;;;16.99;67.93
49451;BME280;35336;48.400;10.886;2023-06-10T00:38:51;95870.22;;;16.96;67.89
49451;BME280;35336;48.400;10.886;2023-06-10T00:39:06;95867.53;;;16.96;67.83
49451;BME280;35336;48.400;10.886;2023-06-10T00:39:21;95872.09;;;16.96;68.04
49451;BME280;35336;48.400;10.886;2023-06-10T00:39:39;95866.97;;;16.94;68.31
49451;BME280;35336;48.400;10.886;2023-06-10T00:39:54;95853.00;;;16.80;68.13
49451;BME280;35336;48.400;10.886;2023-06-10T00:40:10;95868.84;;;16.94;68.24
49451;BME280;35336;48.400;10.886;2023-06-10T00:40:25;95861.59;;;16.94;68.01
49451;BME280;35336;48.400;10.886;2023-06-10T00:40:41;95865.41;;;16.98;68.09
49451;BME280;35336;48.400;10.886;2023-06-10T00:41:01;95868.94;;;16.99;68.13
49451;BME280;35336;48.400;10.886;2023-06-10T00:41:16;95868.41;;;17.02;67.90
49451;BME280;35336;48.400;10.886;2023-06-10T00:41:31;95861.34;;;16.96;67.88
49451;BME280;35336;48.400;10.886;2023-06-10T00:41:47;95862.72;;;16.98;68.01
49451;BME280;35336;48.400;10.886;2023-06-10T00:42:02;95854.31;;;16.95;68.26
49451;BME280;35336;48.400;10.886;2023-06-10T00:42:22;95864.09;;;17.01;68.00
49451;BME280;35336;48.400;10.886;2023-06-10T00:42:40;95870.53;;;17.00;68.17
49451;BME280;35336;48.400;10.886;2023-06-10T00:42:55;95867.03;;;16.99;67.71
49451;BME280;35336;48.400;10.886;2023-06-10T00:43:13;95867.31;;;16.98;67.87
49451;BME280;35336;48.400;10.886;2023-06-10T00:43:28;95870.31;;;17.02;68.00
49451;BME280;35336;48.400;10.886;2023-06-10T00:43:45;95871.09;;;17.02;68.12
49451;BME280;35336;48.400;10.886;2023-06-10T00:44:03;95854.91;;;16.97;68.15
49451;BME280;35336;48.400;10.886;2023-06-10T00:44:18;95858.38;;;16.97;68.03
49451;BME280;35336;48.400;10.886;2023-06-10T00:44:34;95860.84;;;16.99;67.82
49451;BME280;35336;48.400;10.886;2023-06-10T00:44:54;95871.63;;;16.99;68.22
49451;BME280;35336;48.400;10.886;2023-06-10T00:45:11;95862.97;;;16.97;68.17
49451;BME280;35336;48.400;10.886;2023-06-10T00:45:27;95851.53;;;16.90;68.20
49451;BME280;35336;48.400;10.886;2023-06-10T00:45:42;95859.03;;;16.88;68.56
49451;BME280;35336;48.400;10.886;2023-06-10T00:45:58;95875.28;;;16.93;68.54
49451;BME280;35336;48.400;10.886;2023-06-10T00:46:14;95869.31;;;16.91;68.46
49451;BME280;35336;48.400;10.886;2023-06-10T00:46:29;95857.91;;;16.83;68.43
49451;BME280;35336;48.400;10.886;2023-06-10T00:46:47;95867.69;;;16.90;68.48
49451;BME280;35336;48.400;10.886;2023-06-10T00:47:08;95871.44;;;16.89;68.74
49451;BME280;35336;48.400;10.886;2023-06-10T00:47:25;95867.63;;;16.85;68.51
49451;BME280;35336;48.400;10.886;2023-06-10T00:47:40;95860.03;;;16.81;68.75
49451;BME280;35336;48.400;10.886;2023-06-10T00:47:58;95857.59;;;16.80;68.69
49451;BME280;35336;48.400;10.886;2023-06-10T00:48:16;95860.03;;;16.81;68.72
49451;BME280;35336;48.400;10.886;2023-06-10T00:48:32;95855.72;;;16.80;68.78
49451;BME280;35336;48.400;10.886;2023-06-10T00:48:47;95866.53;;;16.86;68.78
49451;BME280;35336;48.400;10.886;2023-06-10T00:49:08;95864.09;;;16.84;68.78
49451;BME280;35336;48.400;10.886;2023-06-10T00:49:24;95860.03;;;16.81;69.05
49451;BME280;35336;48.400;10.886;2023-06-10T00:49:39;95869.22;;;16.86;68.89
49451;BME280;35336;48.400;10.886;2023-06-10T00:49:55;95864.94;;;16.85;68.99
49451;BME280;35336;48.400;10.886;2023-06-10T00:50:12;95868.44;;;16.85;69.03
49451;BME280;35336;48.400;10.886;2023-06-10T00:50:31;95857.28;;;16.76;69.08
49451;BME280;35336;48.400;10.886;2023-06-10T00:50:46;95869.00;;;16.87;68.91
49451;BME280;35336;48.400;10.886;2023-06-10T00:51:05;95869.81;;;16.88;68.69
49451;BME280;35336;48.400;10.886;2023-06-10T00:51:23;95869.31;;;16.91;68.73
49451;BME280;35336;48.400;10.886;2023-06-10T00:51:39;95863.09;;;16.90;68.81
49451;BME280;35336;48.400;10.886;2023-06-10T00:51:54;95866.84;;;16.89;68.64
49451;BME280;35336;48.400;10.886;2023-06-10T00:52:10;95868.34;;;16.97;68.41
49451;BME280;35336;48.400;10.886;2023-06-10T00:52:28;95867.22;;;16.93;68.38
49451;BME280;35336;48.400;10.886;2023-06-10T00:52:43;95875.88;;;16.95;68.46
49451;BME280;35336;48.400;10.886;2023-06-10T00:53:01;95856.03;;;16.84;68.30
49451;BME280;35336;48.400;10.886;2023-06-10T00:53:19;95861.72;;;16.88;68.61
49451;BME280;35336;48.400;10.886;2023-06-10T00:53:36;95869.69;;;16.94;68.40
49451;BME280;35336;48.400;10.886;2023-06-10T00:53:54;95872.59;;;16.93;68.37
49451;BME280;35336;48.400;10.886;2023-06-10T00:54:09;95867.22;;;16.93;68.63
49451;BME280;35336;48.400;10.886;2023-06-10T00:54:30;95870.13;;;16.91;68.81
49451;BME280;35336;48.400;10.886;2023-06-10T00:54:46;95868.75;;;16.89;68.93
49451;BME280;35336;48.400;10.886;2023-06-10T00:55:01;95874.72;;;16.91;69.12
49451;BME280;35336;48.400;10.886;2023-06-10T00:55:19;95873.88;;;16.90;68.88
49451;BME280;35336;48.400;10.886;2023-06-10T00:55:35;95871.44;;;16.89;68.83
49451;BME280;35336;48.400;10.886;2023-06-10T00:55:51;95868.19;;;16.87;68.78
49451;BME280;35336;48.400;10.886;2023-06-10T00:56:07;95863.84;;;16.86;69.17
49451;BME280;35336;48.400;10.886;2023-06-10T00:56:25;95863.31;;;16.83;69.21
49451;BME280;35336;48.400;10.886;2023-06-10T00:56:41;95853.53;;;16.77;69.29
49451;BME280;35336;48.400;10.886;2023-06-10T00:57:00;95861.41;;;16.84;69.42
49451;BME280;35336;48.400;10.886;2023-06-10T00:57:18;95864.94;;;16.85;69.24
49451;BME280;35336;48.400;10.886;2023-06-10T00:57:33;95867.13;;;16.88;69.20
49451;BME280;35336;48.400;10.886;2023-06-10T00:57:49;95866.00;;;16.83;69.34
49451;BME280;35336;48.400;10.886;2023-06-10T00:58:07;95863.63;;;16.87;69.16
49451;BME280;35336;48.400;10.886;2023-06-10T00:58:23;95862.78;;;16.87;69.42
49451;BME280;35336;48.400;10.886;2023-06-10T00:58:39;95865.25;;;16.88;69.41
49451;BME280;35336;48.400;10.886;2023-06-10T00:58:55;95869.81;;;16.88;69.42
49451;BME280;35336;48.400;10.886;2023-06-10T00:59:13;95859.03;;;16.88;69.35
49451;BME280;35336;48.400;10.886;2023-06-10T00:59:31;95865.00;;;16.90;69.22
49451;BME280;35336;48.400;10.886;2023-06-10T00:59:48;95857.91;;;16.83;69.14
49451;BME280;35336;48.400;10.886;2023-06-10T01:00:03;95867.69;;;16.90;69.12
49451;BME280;35336;48.400;10.886;2023-06-10T01:00:19;95874.72;;;16.91;69.39
49451;BME280;35336;48.400;10.886;2023-06-10T01:00:36;95862.31;;;16.90;69.27
49451;BME280;35336;48.400;10.886;2023-06-10T01:00:52;95867.94;;;16.88;69.23
49451;BME280;35336;48.400;10.886;2023-06-10T01:01:09;95862.56;;;16.88;69.29
49451;BME280;35336;48.400;10.886;2023-06-10T01:01:24;95865.00;;;16.90;69.20
49451;BME280;35336;48.400;10.886;2023-06-10T01:01:40;95860.03;;;16.81;69.27
49451;BME280;35336;48.400;10.886;2023-06-10T01:01:56;95859.03;;;16.88;69.32
49451;BME280;35336;48.400;10.886;2023-06-10T01:02:12;95863.31;;;16.83;69.18
49451;BME280;35336;48.400;10.886;2023-06-10T01:02:30;95857.19;;;16.88;69.14
49451;BME280;35336;48.400;10.886;2023-06-10T01:02:45;95860.66;;;16.89;69.03
49451;BME280;35336;48.400;10.886;2023-06-10T01:03:00;95866.63;;;16.91;68.92
49451;BME280;35336;48.400;10.886;2023-06-10T01:03:16;95863.72;;;16.92;69.17
49451;BME280;35336;48.400;10.886;2023-06-10T01:03:33;95867.13;;;16.88;69.42
49451;BME280;35336;48.400;10.886;2023-06-10T01:03:51;95859.03;;;16.88;69.09
49451;BME280;35336;48.400;10.886;2023-06-10T01:04:09;95862.31;;;16.90;68.96
49451;BME280;35336;48.400;10.886;2023-06-10T01:04:24;95838.66;;;16.75;69.21
49451;BME280;35336;48.400;10.886;2023-06-10T01:04:39;95861.66;;;16.82;69.31
49451;BME280;35336;48.400;10.886;2023-06-10T01:04:55;95863.31;;;16.83;69.39
49451;BME280;35336;48.400;10.886;2023-06-10T01:05:10;95862.97;;;16.80;69.51
49451;BME280;35336;48.400;10.886;2023-06-10T01:05:27;95859.47;;;16.79;69.66
49451;BME280;35336;48.400;10.886;2023-06-10T01:05:43;95867.53;;;16.79;69.54
49451;BME280;35336;48.400;10.886;2023-06-10T01:07:28;95869.16;;;16.80;69.46
49451;BME280;35336;48.400;10.886;2023-06-10T01:08:01;95860.53;;;16.78;69.68
49451;BME280;35336;48.400;10.886;2023-06-10T01:08:39;95870.16;;;16.74;70.12
49451;BME280;35336;48.400;10.886;2023-06-10T01:09:04;95864.94;;;16.67;70.31
49451;BME280;35336;48.400;10.886;2023-06-10T01:10:10;95857.47;;;16.52;71.00
49451;BME280;35336;48.400;10.886;2023-06-10T01:10:35;95861.53;;;16.55;70.89
49451;BME280;35336;48.400;10.886;2023-06-10T01:10:54;95863.50;;;16.60;70.71
49451;BME280;35336;48.400;10.886;2023-06-10T01:11:23;95855.09;;;16.56;70.68
49451;BME280;35336;48.400;10.886;2023-06-10T01:11:49;95850.72;;;16.50;70.65
49451;BME280;35336;48.400;10.886;2023-06-10T01:12:12;95872.63;;;16.59;70.54
49451;BME280;35336;48.400;10.886;2023-06-10T01:12:53;95859.09;;;16.54;70.82
49451;BME280;35336;48.400;10.886;2023-06-10T01:13:11;95863.66;;;16.53;70.71
49451;BME280;35336;48.400;10.886;2023-06-10T01:13:28;95861.22;;;16.51;70.78
49451;BME280;35336;48.400;10.886;2023-06-10T01:13:45;95862.38;;;16.56;70.75
49451;BME280;35336;48.400;10.886;2023-06-10T01:14:02;95854.19;;;16.50;70.53
49451;BME280;35336;48.400;10.886;2023-06-10T01:14:19;95858.78;;;16.50;70.88
49451;BME280;35336;48.400;10.886;2023-06-10T01:14:37;95869.34;;;16.57;70.58
49451;BME280;35336;48.400;10.886;2023-06-10T01:14:54;95868.22;;;16.52;70.88
49451;BME280;35336;48.400;10.886;2023-06-10T01:15:10;95869.88;;;16.54;70.79
49451;BME280;35336;48.400;10.886;2023-06-10T01:15:25;95863.91;;;16.51;71.14
49451;BME280;35336;48.400;10.886;2023-06-10T01:15:45;95861.69;;;16.48;71.09
49451;BME280;35336;48.400;10.886;2023-06-10T01:16:05;95860.63;;;16.49;70.99
49451;BME280;35336;48.400;10.886;2023-06-10T01:16:23;95863.25;;;16.44;70.89
49451;BME280;35336;48.400;10.886;2023-06-10T01:16:39;95862.69;;;16.42;70.93
49451;BME280;35336;48.400;10.886;2023-06-10T01:16:56;95859.50;;;16.45;71.05
49451;BME280;35336;48.400;10.886;2023-06-10T01:17:15;95870.03;;;16.47;71.16
49451;BME280;35336;48.400;10.886;2023-06-10T01:17:31;95875.41;;;16.47;70.97
49451;BME280;35336;48.400;10.886;2023-06-10T01:18:15;95874.09;;;16.49;71.11
49451;BME280;35336;48.400;10.886;2023-06-10T01:18:31;95868.16;;;16.47;71.02
49451;BME280;35336;48.400;10.886;2023-06-10T01:18:46;95867.91;;;16.49;70.80
49451;BME280;35336;48.400;10.886;2023-06-10T01:19:01;95873.28;;;16.49;71.13
49451;BME280;35336;48.400;10.886;2023-06-10T01:19:19;95864.31;;;16.43;71.06
49451;BME280;35336;48.400;10.886;2023-06-10T01:19:34;95859.44;;;16.40;70.90
49451;BME280;35336;48.400;10.886;2023-06-10T01:19:56;95861.56;;;16.38;71.44
49451;BME280;35336;48.400;10.886;2023-06-10T01:20:13;95876.13;;;16.42;71.25
49451;BME280;35336;48.400;10.886;2023-06-10T01:20:30;95870.75;;;16.42;71.11
49451;BME280;35336;48.400;10.886;2023-06-10T01:20:46;95868.00;;;16.37;71.26
49451;BME280;35336;48.400;10.886;2023-06-10T01:21:01;95860.97;;;16.36;71.57
49451;BME280;35336;48.400;10.886;2023-06-10T01:21:20;95872.88;;;16.40;71.48
49451;BME280;35336;48.400;10.886;2023-06-10T01:21:37;95862.84;;;16.35;71.24
49451;BME280;35336;48.400;10.886;2023-06-10T01:21:55;95876.38;;;16.41;71.33
49451;BME280;35336;48.400;10.886;2023-06-10T01:22:10;95861.22;;;16.34;71.29
49451;BME280;35336;48.400;10.886;2023-06-10T01:22:26;95874.28;;;16.43;71.32
49451;BME280;35336;48.400;10.886;2023-06-10T01:22:42;95869.69;;;16.43;71.25
49451;BME280;35336;48.400;10.886;2023-06-10T01:23:00;95874.81;;;16.45;71.23
49451;BME280;35336;48.400;10.886;2023-06-10T01:23:16;95862.19;;;16.45;70.84
49451;BME280;35336;48.400;10.886;2023-06-10T01:23:31;95861.38;;;16.45;71.09
49451;BME280;35336;48.400;10.886;2023-06-10T01:23:47;95875.72;;;16.50;71.18
49451;BME280;35336;48.400;10.886;2023-06-10T01:24:05;95868.63;;;16.44;71.25
49451;BME280;35336;48.400;10.886;2023-06-10T01:24:21;95874.03;;;16.44;71.12
49451;BME280;35336;48.400;10.886;2023-06-10T01:24:37;95874.59;;;16.46;70.96
49451;BME280;35336;48.400;10.886;2023-06-10T01:24:55;95858.13;;;16.43;71.28
49451;BME280;35336;48.400;10.886;2023-06-10T01:25:13;95871.34;;;16.44;71.37
49451;BME280;35336;48.400;10.886;2023-06-10T01:25:29;95867.00;;;16.43;71.33
49451;BME280;35336;48.400;10.886;2023-06-10T01:25:53;95871.81;;;16.41;71.23
49451;BME280;35336;48.400;10.886;2023-06-10T01:26:12;95871.81;;;16.41;71.38
49451;BME280;35336;48.400;10.886;2023-06-10T01:26:30;95872.63;;;16.42;71.54
49451;BME280;35336;48.400;10.886;2023-06-10T01:26:49;95867.50;;;16.40;71.48
49451;BME280;35336;48.400;10.886;2023-06-10T01:27:12;95870.84;;;16.47;71.33
49451;BME280;35336;48.400;10.886;2023-06-10T01:27:33;95869.75;;;16.48;71.12
49451;BME280;35336;48.400;10.886;2023-06-10T01:27:55;95859.44;;;16.40;71.22
49451;BME280;35336;48.400;10.886;2023-06-10T01:28:22;95873.69;;;16.41;71.52
49451;BME280;35336;48.400;10.886;2023-06-10T01:29:19;95864.41;;;16.31;71.61
49451;BME280;35336;48.400;10.886;2023-06-10T01:29:43;95875.00;;;16.38;71.43
49451;BME280;35336;48.400;10.886;2023-06-10T01:30:04;95870.69;;;16.37;71.44
49451;BME280;35336;48.400;10.886;2023-06-10T01:30:27;95868.72;;;16.32;71.77
49451;BME280;35336;48.400;10.886;2023-06-10T01:30:55;95872.25;;;16.33;71.80
49451;BME280;35336;48.400;10.886;2023-06-10T01:32:02;95865.38;;;16.25;71.90
49451;BME280;35336;48.400;10.886;2023-06-10T01:32:24;95869.94;;;16.25;72.14
49451;BME280;35336;48.400;10.886;2023-06-10T01:32:48;95871.91;;;16.29;71.87
49451;BME280;35336;48.400;10.886;2023-06-10T01:33:06;95873.19;;;16.27;72.02
49451;BME280;35336;48.400;10.886;2023-06-10T01:33:28;95858.22;;;16.14;72.20
49451;BME280;35336;48.400;10.886;2023-06-10T01:33:52;95876.84;;;16.20;72.37
49451;BME280;35336;48.400;10.886;2023-06-10T01:34:10;95874.75;;;16.23;72.18